Ramer, Alabama
Current Conditions -  °F | °C
As of 11:53 AM on Friday 19 Dec 2014 (Local Time) from KTOI Reporting Station
Clear Clear  
Wind Chill: 12°   Ceiling: Unl
Heat Index: 12°   Visibility: 10mi
Dew Point:   Wind: 0mph
Humidity: 51%   Direction: NA
Pressure: 30.16"   Gusts: NA
Location:  32.05°N, 86.22°W
Report Text: KTOI 191753Z AUTO 00000KT 10SM CLR 12/02 A3016 RMK AO2 SLP213 T01220022 10122 20044 58018
Loading
Personal Weather Stations






























Interactive Weather Map New forecast layout! Learn more

10-Day Weather Forecast

Advertisements
Track Severe Weather on mobile